LFQQ/LIL METAR and TAF weather

Enter ICAO airport designator
Station Type Date Time Source
LFQQ METAR 2022/10/01 07:30 UTC NOAA

LFQQ 010730Z AUTO 24008KT CAVOK 15/13 Q1005 TEMPO 28015G25KT 3000 SHRA BKN020CB


Station Type Date Time Source
LFQQ Decoded METAR 2022/10/01 07:30 UTC NOAA

Lille, France (LFQQ) 50-34N 003-06E 52M
Oct 01, 2022 - 03:30 AM EDT / 2022.10.01 0730 UTC
Wind: from the WSW (240 degrees) at 9 MPH (8 KT):0
Visibility: greater than 7 mile(s):0
Weather: Cumulonimbus clouds observed
Temperature: 59 F (15 C)
Dew Point: 55 F (13 C)
Relative Humidity: 87%
Pressure (altimeter): 29.68 in. Hg (1005 hPa)
ob: LFQQ 010730Z AUTO 24008

Station Type Date Time Source
LFQQ TAF 2022/10/01 06:44 UTC NOAA

TAF LFQQ 010500Z 0106/0212 25013KT 9999 RA SCT009 BKN020
TEMPO 0109/0112 28015G25KT 3000 SHRA BKN020CB
TEMPO 0112/0117 26015G25KT
TEMPO 0122/0124 28015G25KT 3000 SHRA BKN020CB
TEMPO 0203/0212 4000 RA

Example: see airport list